createdAt,value
2023-03-06T00:01:29.270Z,25.84
2023-03-06T00:05:29.213Z,25.73
2023-03-06T00:09:29.194Z,25.80
2023-03-06T00:13:29.171Z,25.69
2023-03-06T00:17:29.146Z,25.73
2023-03-06T00:21:29.088Z,25.73
2023-03-06T00:25:29.066Z,25.73
2023-03-06T00:29:28.998Z,25.77
2023-03-06T00:33:29.050Z,25.71
2023-03-06T00:37:29.190Z,25.71
2023-03-06T00:41:29.291Z,25.61
2023-03-06T00:45:29.590Z,25.68
2023-03-06T00:49:29.673Z,25.68
2023-03-06T00:53:29.803Z,25.68
2023-03-06T00:57:29.940Z,25.54
2023-03-06T01:01:30.098Z,25.58
2023-03-06T01:05:30.206Z,25.65
2023-03-06T01:09:30.294Z,25.60
2023-03-06T01:13:30.530Z,25.56
2023-03-06T01:17:30.537Z,25.57
2023-03-06T01:21:30.682Z,25.47
2023-03-06T01:25:30.715Z,25.53
2023-03-06T01:29:30.793Z,25.51
2023-03-06T01:33:30.882Z,25.48
2023-03-06T01:37:30.895Z,25.51
2023-03-06T01:41:30.980Z,25.54
2023-03-06T01:45:30.989Z,25.42
2023-03-06T01:49:30.957Z,25.51
2023-03-06T01:53:30.965Z,25.51
2023-03-06T01:57:30.999Z,25.51
2023-03-06T02:01:30.986Z,25.48
2023-03-06T02:05:30.947Z,25.48
2023-03-06T02:09:30.967Z,25.39
2023-03-06T02:13:30.967Z,25.45
2023-03-06T02:17:31.067Z,25.42
2023-03-06T02:21:31.046Z,25.43
2023-03-06T02:25:31.021Z,25.42
2023-03-06T02:29:31.032Z,25.40
2023-03-06T02:33:31.013Z,25.36
2023-03-06T02:37:31.014Z,25.36
2023-03-06T02:41:31.035Z,25.28
2023-03-06T02:45:31.035Z,25.37
2023-03-06T02:49:31.004Z,25.31
2023-03-06T02:53:30.989Z,25.37
2023-03-06T02:57:31.018Z,25.31
2023-03-06T03:01:31.044Z,25.35
2023-03-06T03:05:31.022Z,25.25
2023-03-06T03:09:31.010Z,25.23
2023-03-06T03:13:31.033Z,25.25
2023-03-06T03:17:31.044Z,25.22
2023-03-06T03:21:31.103Z,25.20
2023-03-06T03:25:31.105Z,25.26
2023-03-06T03:29:31.098Z,25.23
2023-03-06T03:33:31.201Z,25.28
2023-03-06T03:37:31.206Z,25.25
2023-03-06T03:41:31.623Z,25.26
2023-03-06T03:45:31.199Z,25.26
2023-03-06T03:49:31.284Z,25.25
2023-03-06T03:53:31.280Z,25.28
2023-03-06T03:57:31.331Z,25.28
2023-03-06T04:01:31.563Z,25.22
2023-03-06T04:05:31.415Z,25.29
2023-03-06T04:09:31.450Z,25.23
2023-03-06T04:13:31.496Z,25.20
2023-03-06T04:17:31.546Z,25.22
2023-03-06T04:21:31.632Z,25.18
2023-03-06T04:25:31.675Z,25.14
2023-03-06T04:29:31.684Z,25.08
2023-03-06T04:33:31.701Z,25.06
2023-03-06T04:37:31.721Z,25.05
2023-03-06T04:41:31.747Z,25.14
2023-03-06T04:45:31.798Z,25.08
2023-03-06T04:49:31.825Z,25.08
2023-03-06T04:53:31.822Z,25.04
2023-03-06T04:57:31.909Z,25.15
2023-03-06T05:01:31.978Z,24.57
2023-03-06T05:05:32.142Z,24.56
2023-03-06T05:09:32.186Z,24.66
2023-03-06T05:13:32.266Z,24.59
2023-03-06T05:17:32.312Z,24.60
2023-03-06T05:21:32.366Z,24.56
2023-03-06T05:25:32.345Z,24.57
2023-03-06T05:29:32.425Z,24.63
2023-03-06T05:33:32.445Z,24.56
2023-03-06T05:37:32.495Z,24.62
2023-03-06T05:41:32.523Z,24.66
2023-03-06T05:45:32.568Z,24.65
2023-03-06T05:49:32.565Z,24.57
2023-03-06T05:53:32.641Z,25.35
2023-03-06T05:57:32.652Z,25.69
2023-03-06T06:01:32.661Z,26.85
2023-03-06T06:05:32.694Z,26.68
2023-03-06T06:09:32.747Z,27.22
2023-03-06T06:13:32.715Z,27.18
2023-03-06T06:17:32.753Z,28.26
2023-03-06T06:21:32.756Z,29.48
2023-03-06T06:25:32.762Z,32.92
2023-03-06T06:29:32.797Z,34.36
2023-03-06T06:33:32.768Z,33.57
2023-03-06T06:37:32.803Z,32.85
2023-03-06T06:41:51.090Z,33.64
2023-03-06T06:45:33.788Z,32.85
2023-03-06T06:49:33.197Z,32.78
2023-03-06T06:53:32.681Z,33.09
2023-03-06T06:57:32.687Z,29.83
2023-03-06T07:01:32.818Z,32.69
2023-03-06T07:05:32.810Z,34.99
2023-03-06T07:09:33.205Z,37.12
2023-03-06T07:13:33.191Z,37.51
2023-03-06T07:17:32.725Z,38.55
2023-03-06T07:21:32.711Z,38.65
2023-03-06T07:25:32.690Z,39.14
2023-03-06T07:29:32.717Z,39.85
2023-03-06T07:33:32.595Z,40.05
2023-03-06T07:37:32.731Z,40.69
2023-03-06T07:41:32.528Z,41.14
2023-03-06T07:45:32.717Z,40.48
2023-03-06T07:49:32.478Z,39.67
2023-03-06T07:53:32.704Z,39.62
2023-03-06T07:57:32.704Z,39.77
2023-03-06T08:01:32.374Z,39.89
2023-03-06T08:05:32.397Z,40.64
2023-03-06T08:09:32.384Z,40.75
2023-03-06T08:13:32.725Z,40.99
2023-03-06T08:17:32.359Z,40.95
2023-03-06T08:21:32.255Z,41.33
2023-03-06T08:25:32.224Z,41.63
2023-03-06T08:29:32.438Z,41.69
2023-03-06T08:33:32.141Z,42.15
2023-03-06T08:37:32.146Z,42.22
2023-03-06T08:41:32.243Z,42.42
2023-03-06T08:45:32.396Z,42.20
2023-03-06T08:49:32.255Z,40.02
2023-03-06T08:53:42.534Z,34.02
2023-03-06T08:57:32.939Z,34.86
2023-03-06T09:01:32.249Z,36.78
2023-03-06T09:05:31.861Z,37.74
2023-03-06T09:09:31.844Z,38.19
2023-03-06T09:13:31.908Z,38.92
2023-03-06T09:17:31.918Z,39.21
2023-03-06T09:21:31.857Z,39.41
2023-03-06T09:25:31.815Z,39.65
2023-03-06T09:29:31.813Z,40.08
2023-03-06T09:33:31.735Z,40.33
2023-03-06T09:37:31.762Z,40.00
2023-03-06T09:41:31.746Z,40.56
2023-03-06T09:45:31.642Z,41.24
2023-03-06T09:49:31.613Z,41.46
2023-03-06T09:53:31.756Z,41.91
2023-03-06T09:57:31.763Z,41.98
2023-03-06T10:01:31.514Z,42.10
2023-03-06T10:05:31.475Z,40.73
2023-03-06T10:09:31.456Z,40.98
2023-03-06T10:13:31.419Z,41.76
2023-03-06T10:17:31.777Z,42.36
2023-03-06T10:21:31.515Z,42.64
2023-03-06T10:25:32.267Z,42.88
2023-03-06T10:29:31.533Z,43.45
2023-03-06T10:33:31.761Z,43.72
2023-03-06T10:37:32.654Z,43.88
2023-03-06T10:41:32.295Z,44.32
2023-03-06T10:45:47.292Z,44.05
2023-03-06T10:49:33.307Z,44.47
2023-03-06T10:53:32.185Z,44.71
2023-03-06T10:57:32.134Z,44.89
2023-03-06T11:01:32.343Z,45.27
2023-03-06T11:05:32.056Z,45.11
2023-03-06T11:09:32.059Z,45.53
2023-03-06T11:13:31.986Z,45.16
2023-03-06T11:17:32.003Z,45.26
2023-03-06T11:21:32.287Z,45.32
2023-03-06T11:25:31.894Z,45.38
2023-03-06T11:29:34.298Z,45.43
2023-03-06T11:33:31.796Z,45.72
2023-03-06T11:37:31.804Z,45.99
2023-03-06T11:41:31.738Z,45.48
2023-03-06T11:45:31.789Z,44.45
2023-03-06T11:49:31.681Z,43.72
2023-03-06T11:53:31.611Z,42.59
2023-03-06T11:57:31.575Z,41.00
2023-03-06T12:01:31.538Z,40.37
2023-03-06T12:05:31.561Z,39.82
2023-03-06T12:09:31.487Z,39.00
2023-03-06T12:13:31.477Z,38.04
2023-03-06T12:17:31.802Z,36.96
2023-03-06T12:21:31.362Z,36.56
2023-03-06T12:25:31.333Z,36.72
2023-03-06T12:29:31.368Z,36.05
2023-03-06T12:33:31.232Z,35.86
2023-03-06T12:37:31.338Z,34.62
2023-03-06T12:41:31.193Z,33.22
2023-03-06T12:45:31.300Z,33.92
2023-03-06T12:49:32.995Z,34.78
2023-03-06T12:53:31.309Z,34.85
2023-03-06T12:57:31.129Z,34.05
2023-03-06T13:01:31.179Z,35.20
2023-03-06T13:05:31.311Z,34.91
2023-03-06T13:09:31.315Z,34.88
2023-03-06T13:13:31.272Z,35.14
2023-03-06T13:17:31.216Z,35.49
2023-03-06T13:21:31.350Z,34.59
2023-03-06T13:25:31.304Z,31.01
2023-03-06T13:29:31.122Z,30.55
2023-03-06T13:33:31.088Z,31.02
2023-03-06T13:37:31.062Z,30.26
2023-03-06T13:41:31.099Z,29.49
2023-03-06T13:45:30.988Z,28.94
2023-03-06T13:49:30.948Z,29.46
2023-03-06T13:53:30.941Z,29.51
2023-03-06T13:57:30.890Z,29.83
2023-03-06T14:01:30.903Z,30.04
2023-03-06T14:05:30.782Z,28.79
2023-03-06T14:09:30.754Z,28.96
2023-03-06T14:13:38.411Z,29.36
2023-03-06T14:17:31.708Z,29.24
2023-03-06T14:21:30.665Z,28.86
2023-03-06T14:25:30.722Z,28.72
2023-03-06T14:29:30.697Z,28.57
2023-03-06T14:33:30.633Z,28.78
2023-03-06T14:37:30.642Z,28.61
2023-03-06T14:41:30.587Z,28.18
2023-03-06T14:45:30.559Z,27.78
2023-03-06T14:49:30.513Z,28.34
2023-03-06T14:53:30.476Z,28.91
2023-03-06T14:57:30.428Z,29.00
2023-03-06T15:01:30.485Z,28.56
2023-03-06T15:05:30.350Z,28.34
2023-03-06T15:09:30.359Z,28.32
2023-03-06T15:13:30.400Z,27.45
2023-03-06T15:17:30.245Z,28.43
2023-03-06T15:21:30.202Z,28.75
2023-03-06T15:25:30.207Z,29.10
2023-03-06T15:29:30.142Z,29.15
2023-03-06T15:33:30.113Z,29.15
2023-03-06T15:37:30.077Z,29.10
2023-03-06T15:41:30.026Z,27.37
2023-03-06T15:45:30.064Z,28.09
2023-03-06T15:49:29.992Z,28.78
2023-03-06T15:53:29.946Z,28.73
2023-03-06T15:57:29.924Z,28.13
2023-03-06T16:01:29.981Z,27.55
2023-03-06T16:05:29.877Z,27.16
2023-03-06T16:09:29.992Z,27.13
2023-03-06T16:13:30.070Z,27.04
2023-03-06T16:17:30.105Z,26.85
2023-03-06T16:21:30.214Z,27.11
2023-03-06T16:25:30.316Z,27.70
2023-03-06T16:29:30.452Z,27.25
2023-03-06T16:33:30.612Z,27.08
2023-03-06T16:37:30.791Z,27.29
2023-03-06T16:41:31.000Z,27.35
2023-03-06T16:45:31.139Z,27.11
2023-03-06T16:49:31.321Z,26.32
2023-03-06T16:53:31.468Z,26.12
2023-03-06T16:57:32.391Z,25.82
2023-03-06T17:01:32.005Z,26.27
2023-03-06T17:05:31.990Z,26.18
2023-03-06T17:09:32.182Z,25.86
2023-03-06T17:13:32.355Z,26.12
2023-03-06T17:17:32.597Z,26.35
2023-03-06T17:21:32.537Z,25.83
2023-03-06T17:25:32.529Z,25.74
2023-03-06T17:29:32.502Z,25.66
2023-03-06T17:33:32.469Z,25.47
2023-03-06T17:37:32.405Z,25.00
2023-03-06T17:41:32.412Z,24.73
2023-03-06T17:45:32.350Z,24.58
2023-03-06T17:49:32.307Z,24.46
2023-03-06T17:53:32.283Z,24.37
2023-03-06T17:57:32.305Z,24.17
2023-03-06T18:01:32.193Z,23.92
2023-03-06T18:05:32.192Z,23.44
2023-03-06T18:09:32.280Z,23.03
2023-03-06T18:13:32.404Z,22.45
2023-03-06T18:17:32.549Z,21.99
2023-03-06T18:21:32.714Z,21.75
2023-03-06T18:25:32.899Z,21.62
2023-03-06T18:29:32.852Z,21.24
2023-03-06T18:33:32.861Z,21.12
2023-03-06T18:37:32.835Z,20.94
2023-03-06T18:41:32.778Z,20.90
2023-03-06T18:45:32.772Z,20.76
2023-03-06T18:49:32.732Z,20.77
2023-03-06T18:53:32.658Z,20.66
2023-03-06T18:57:32.649Z,20.67
2023-03-06T19:01:32.632Z,20.59
2023-03-06T19:05:32.567Z,20.54
2023-03-06T19:09:32.519Z,20.43
2023-03-06T19:13:32.514Z,20.39
2023-03-06T19:17:32.443Z,20.34
2023-03-06T19:21:32.437Z,20.24
2023-03-06T19:25:32.383Z,20.23
2023-03-06T19:29:32.349Z,20.35
2023-03-06T19:33:32.362Z,20.27
2023-03-06T19:37:32.268Z,20.29
2023-03-06T19:41:32.209Z,20.21
2023-03-06T19:45:32.279Z,20.09
2023-03-06T19:49:32.136Z,20.14
2023-03-06T19:53:32.275Z,20.17
2023-03-06T19:57:32.425Z,20.10
2023-03-06T20:01:32.644Z,20.12
2023-03-06T20:05:32.702Z,20.08
2023-03-06T20:09:32.838Z,20.07
2023-03-06T20:13:32.972Z,20.05
2023-03-06T20:17:33.087Z,20.00
2023-03-06T20:21:33.232Z,20.00
2023-03-06T20:25:33.363Z,19.97
2023-03-06T20:29:33.530Z,20.00
2023-03-06T20:33:33.715Z,19.97
2023-03-06T20:37:33.920Z,19.90
2023-03-06T20:41:34.151Z,19.90
2023-03-06T20:45:34.372Z,20.01
2023-03-06T20:49:34.579Z,20.03
2023-03-06T20:53:34.790Z,19.95
2023-03-06T20:57:34.976Z,19.93
2023-03-06T21:01:34.992Z,19.99
2023-03-06T21:05:34.980Z,20.01
2023-03-06T21:09:34.870Z,20.01
2023-03-06T21:13:34.858Z,20.09
2023-03-06T21:17:34.794Z,19.97
2023-03-06T21:21:34.793Z,19.99
2023-03-06T21:25:34.749Z,20.00
2023-03-06T21:29:34.699Z,20.05
2023-03-06T21:33:34.672Z,19.98
2023-03-06T21:37:34.661Z,19.94
2023-03-06T21:41:34.771Z,19.96
2023-03-06T21:45:34.934Z,20.01
2023-03-06T21:49:34.907Z,20.12
2023-03-06T21:53:34.813Z,20.21
2023-03-06T21:57:34.782Z,20.23
2023-03-06T22:01:34.729Z,20.21
2023-03-06T22:05:34.715Z,20.32
2023-03-06T22:09:34.672Z,20.38
2023-03-06T22:13:34.670Z,20.46
2023-03-06T22:17:34.631Z,20.44
2023-03-06T22:21:34.601Z,20.52
2023-03-06T22:25:34.510Z,20.52
2023-03-06T22:29:34.500Z,20.53
2023-03-06T22:33:34.445Z,20.62
2023-03-06T22:37:34.456Z,20.62
2023-03-06T22:41:34.394Z,20.70
2023-03-06T22:45:34.746Z,20.78
2023-03-06T22:49:34.310Z,20.79
2023-03-06T22:53:34.290Z,20.89
2023-03-06T22:57:34.266Z,20.94
2023-03-06T23:01:34.290Z,21.07
2023-03-06T23:05:34.412Z,21.16
2023-03-06T23:09:34.653Z,21.10
2023-03-06T23:13:34.612Z,21.07
2023-03-06T23:17:34.529Z,21.03
2023-03-06T23:21:34.529Z,21.16
2023-03-06T23:25:34.488Z,21.12
2023-03-06T23:29:34.448Z,21.12
2023-03-06T23:33:34.436Z,21.20
2023-03-06T23:37:34.397Z,21.26
2023-03-06T23:41:34.349Z,21.25
2023-03-06T23:45:34.327Z,21.31
2023-03-06T23:49:34.281Z,21.26
2023-03-06T23:53:34.235Z,21.35
2023-03-06T23:57:34.183Z,21.40
